Portada
METAR-TAF:

METAR-TAF

Aeroports :

Padang, Indonèsia

latitud: 00-47-12S, longitud: 100-16-50E, altitud: 5 m

METAR: manca

Hora: 11:06 (04:06 UTC)

Pronòstic

L'informe es va fer fa 5 hores i 6 minuts, a les 23:00 UTC
Pronòstic vàlid del 21 a les 00 UTC al 21 a les 24 UTC
Vent 6 kt del Sud-Oest
Visibilitat 10 km o més
Escasses núvols a una alçada de 2000 ft
Temporalment
l' 21 a les 11 UTC al 21 a les 14 UTC
Visibilitat: 1500 m
Cel ennuvolat a una alçada de 1500 ft
pluja

TAF: WIEE 202300Z 2100/2124 22006KT 9999 FEW020 TEMPO 2111/2114 1500 RA BKN015

Observacions i pronòstics meteorològics de més de 4000 aeroports (METAR i TAF).

Les estacions disponibles són els punts grocs i vermells al mapa.

Posi el ratolí al punt desitjat per veure el nom de l'estació.

Feu clic per veure les observacions i els pronòstics meteorològics.

Per canviar el mapa: feu clic els botons verds amb una creu de color negre per apropar; al botó verd amb un guió per allunyar la imatge; o en les fletxes verdes per a mapes adjacents.


METAR-TAF: